createdAt,value
2022-11-09T00:00:01.062Z,5.60
2022-11-09T00:01:01.049Z,5.48
2022-11-09T00:02:01.123Z,5.52
2022-11-09T00:03:01.048Z,5.44
2022-11-09T00:04:01.012Z,5.58
2022-11-09T00:05:01.117Z,5.56
2022-11-09T00:06:01.077Z,5.59
2022-11-09T00:07:01.040Z,5.42
2022-11-09T00:08:00.981Z,5.51
2022-11-09T00:09:06.852Z,5.58
2022-11-09T00:10:02.083Z,5.48
2022-11-09T00:11:00.938Z,5.55
2022-11-09T00:12:00.929Z,5.41
2022-11-09T00:13:00.930Z,5.47
2022-11-09T00:14:00.903Z,5.45
2022-11-09T00:15:00.896Z,5.45
2022-11-09T00:16:00.995Z,5.52
2022-11-09T00:17:00.887Z,5.52
2022-11-09T00:18:00.860Z,5.44
2022-11-09T00:19:00.871Z,5.44
2022-11-09T00:20:00.852Z,5.47
2022-11-09T00:21:00.831Z,5.47
2022-11-09T00:22:00.887Z,5.47
2022-11-09T00:23:00.817Z,5.51
2022-11-09T00:24:00.798Z,5.48
2022-11-09T00:25:00.789Z,5.42
2022-11-09T00:26:00.772Z,5.49
2022-11-09T00:27:00.775Z,5.45
2022-11-09T00:28:00.815Z,5.45
2022-11-09T00:29:00.744Z,5.40
2022-11-09T00:30:00.730Z,5.44
2022-11-09T00:31:00.723Z,5.45
2022-11-09T00:32:00.720Z,5.41
2022-11-09T00:33:00.699Z,5.41
2022-11-09T00:34:00.727Z,5.37
2022-11-09T00:35:00.695Z,5.48
2022-11-09T00:36:00.685Z,5.51
2022-11-09T00:37:00.653Z,5.45
2022-11-09T00:38:00.728Z,5.52
2022-11-09T00:39:00.646Z,5.44
2022-11-09T00:40:00.724Z,5.40
2022-11-09T00:41:00.616Z,5.51
2022-11-09T00:42:00.601Z,5.40
2022-11-09T00:43:00.587Z,5.51
2022-11-09T00:44:00.579Z,5.45
2022-11-09T00:45:00.566Z,5.42
2022-11-09T00:46:00.658Z,5.42
2022-11-09T00:47:00.545Z,5.58
2022-11-09T00:48:00.531Z,5.42
2022-11-09T00:49:00.522Z,5.48
2022-11-09T00:50:00.509Z,5.45
2022-11-09T00:51:00.532Z,5.40
2022-11-09T00:52:00.608Z,5.35
2022-11-09T00:53:00.478Z,5.49
2022-11-09T00:54:00.465Z,5.37
2022-11-09T00:55:00.466Z,5.51
2022-11-09T00:56:00.443Z,5.48
2022-11-09T00:57:00.433Z,5.60
2022-11-09T00:58:00.523Z,5.47
2022-11-09T00:59:00.419Z,5.51
2022-11-09T01:00:00.399Z,5.58
2022-11-09T01:01:00.435Z,5.45
2022-11-09T01:02:00.378Z,5.60
2022-11-09T01:03:00.369Z,5.74
2022-11-09T01:04:00.440Z,5.55
2022-11-09T01:05:00.346Z,5.65
2022-11-09T01:06:00.350Z,5.66
2022-11-09T01:07:00.518Z,5.60
2022-11-09T01:08:00.315Z,5.59
2022-11-09T01:09:00.302Z,5.74
2022-11-09T01:10:00.375Z,5.65
2022-11-09T01:11:00.281Z,5.66
2022-11-09T01:12:00.285Z,5.58
2022-11-09T01:13:00.259Z,5.62
2022-11-09T01:14:00.244Z,5.66
2022-11-09T01:15:00.245Z,5.62
2022-11-09T01:16:00.479Z,5.66
2022-11-09T01:17:00.215Z,5.65
2022-11-09T01:18:00.202Z,5.62
2022-11-09T01:19:00.195Z,5.73
2022-11-09T01:20:00.222Z,5.59
2022-11-09T01:21:00.182Z,5.63
2022-11-09T01:22:00.232Z,5.73
2022-11-09T01:23:00.169Z,5.67
2022-11-09T01:24:00.142Z,5.70
2022-11-09T01:25:00.148Z,5.66
2022-11-09T01:26:00.124Z,5.70
2022-11-09T01:27:00.123Z,5.70
2022-11-09T01:28:00.213Z,5.77
2022-11-09T01:29:00.102Z,5.78
2022-11-09T01:30:00.070Z,5.80
2022-11-09T01:31:00.088Z,5.73
2022-11-09T01:32:00.049Z,5.69
2022-11-09T01:33:00.040Z,5.66
2022-11-09T01:34:00.138Z,5.73
2022-11-09T01:35:00.018Z,5.69
2022-11-09T01:36:00.007Z,5.78
2022-11-09T01:37:00.007Z,5.84
2022-11-09T01:37:59.986Z,5.81
2022-11-09T01:38:59.990Z,5.84
2022-11-09T01:40:00.021Z,5.87
2022-11-09T01:41:00.015Z,5.81
2022-11-09T01:41:59.940Z,5.70
2022-11-09T01:42:59.942Z,5.87
2022-11-09T01:43:59.920Z,5.88
2022-11-09T01:44:59.909Z,5.98
2022-11-09T01:45:59.989Z,5.96
2022-11-09T01:46:59.907Z,5.96
2022-11-09T01:47:59.877Z,5.93
2022-11-09T01:48:59.871Z,6.06
2022-11-09T01:49:59.857Z,5.96
2022-11-09T01:50:59.842Z,6.13
2022-11-09T01:51:59.890Z,6.13
2022-11-09T01:52:59.831Z,6.21
2022-11-09T01:53:59.809Z,6.01
2022-11-09T01:54:59.816Z,6.08
2022-11-09T01:55:59.789Z,6.20
2022-11-09T01:56:59.777Z,6.13
2022-11-09T01:57:59.815Z,6.17
2022-11-09T01:58:59.764Z,6.20
2022-11-09T01:59:59.747Z,6.11
2022-11-09T02:00:59.797Z,6.24
2022-11-09T02:01:59.722Z,6.21
2022-11-09T02:02:59.708Z,6.24
2022-11-09T02:03:59.737Z,6.35
2022-11-09T02:04:59.702Z,6.38
2022-11-09T02:05:59.678Z,6.25
2022-11-09T02:06:59.711Z,6.36
2022-11-09T02:07:59.658Z,6.28
2022-11-09T02:08:59.650Z,6.39
2022-11-09T02:09:59.669Z,6.33
2022-11-09T02:10:59.642Z,6.17
2022-11-09T02:11:59.623Z,6.28
2022-11-09T02:12:59.600Z,6.36
2022-11-09T02:13:59.590Z,6.32
2022-11-09T02:14:59.579Z,6.36
2022-11-09T02:15:59.648Z,6.36
2022-11-09T02:16:59.554Z,6.42
2022-11-09T02:17:59.546Z,6.42
2022-11-09T02:18:59.531Z,6.38
2022-11-09T02:19:59.528Z,6.38
2022-11-09T02:20:59.509Z,6.35
2022-11-09T02:21:59.590Z,6.45
2022-11-09T02:22:59.489Z,6.39
2022-11-09T02:23:59.479Z,6.46
2022-11-09T02:24:59.466Z,6.53
2022-11-09T02:25:59.458Z,6.60
2022-11-09T02:26:59.463Z,6.60
2022-11-09T02:27:59.521Z,6.65
2022-11-09T02:28:59.420Z,6.60
2022-11-09T02:29:59.416Z,6.60
2022-11-09T02:30:59.399Z,6.65
2022-11-09T02:31:59.391Z,6.63
2022-11-09T02:32:59.390Z,6.57
2022-11-09T02:33:59.448Z,6.64
2022-11-09T02:34:59.358Z,6.54
2022-11-09T02:35:59.346Z,6.69
2022-11-09T02:36:59.333Z,6.65
2022-11-09T02:37:59.336Z,6.68
2022-11-09T02:38:59.310Z,6.72
2022-11-09T02:39:59.402Z,6.64
2022-11-09T02:40:59.288Z,6.72
2022-11-09T02:42:02.675Z,6.68
2022-11-09T02:42:59.330Z,6.71
2022-11-09T02:43:59.270Z,6.69
2022-11-09T02:44:59.247Z,6.65
2022-11-09T02:45:59.315Z,6.63
2022-11-09T02:46:59.226Z,6.71
2022-11-09T02:47:59.213Z,6.73
2022-11-09T02:48:59.201Z,6.75
2022-11-09T02:49:59.203Z,6.76
2022-11-09T02:50:59.180Z,6.72
2022-11-09T02:51:59.239Z,6.68
2022-11-09T02:52:59.172Z,6.83
2022-11-09T02:53:59.165Z,6.82
2022-11-09T02:54:59.149Z,6.75
2022-11-09T02:55:59.194Z,6.86
2022-11-09T02:56:59.113Z,6.87
2022-11-09T02:57:59.103Z,6.89
2022-11-09T02:58:59.195Z,6.75
2022-11-09T02:59:59.151Z,6.90
2022-11-09T03:00:59.125Z,6.83
2022-11-09T03:01:59.060Z,6.82
2022-11-09T03:02:59.051Z,6.75
2022-11-09T03:03:59.043Z,6.79
2022-11-09T03:04:59.044Z,6.61
2022-11-09T03:05:59.091Z,6.68
2022-11-09T03:06:59.080Z,6.42
2022-11-09T03:07:58.994Z,6.20
2022-11-09T03:08:59.047Z,6.24
2022-11-09T03:09:58.979Z,6.20
2022-11-09T03:10:58.977Z,6.03
2022-11-09T03:11:59.013Z,5.99
2022-11-09T03:12:58.938Z,5.98
2022-11-09T03:13:58.937Z,5.80
2022-11-09T03:14:58.936Z,5.80
2022-11-09T03:15:58.907Z,5.93
2022-11-09T03:16:59.010Z,6.03
2022-11-09T03:17:58.883Z,5.99
2022-11-09T03:18:58.871Z,6.10
2022-11-09T03:19:58.863Z,6.14
2022-11-09T03:20:58.892Z,6.01
2022-11-09T03:21:58.840Z,6.21
2022-11-09T03:22:58.916Z,6.39
2022-11-09T03:23:58.818Z,6.33
2022-11-09T03:24:58.809Z,6.46
2022-11-09T03:25:58.801Z,6.33
2022-11-09T03:26:58.785Z,6.30
2022-11-09T03:27:58.781Z,6.45
2022-11-09T03:28:58.847Z,6.40
2022-11-09T03:29:58.754Z,6.39
2022-11-09T03:30:58.757Z,6.51
2022-11-09T03:31:58.736Z,6.43
2022-11-09T03:32:58.718Z,6.50
2022-11-09T03:33:58.709Z,6.50
2022-11-09T03:34:58.782Z,6.42
2022-11-09T03:35:58.684Z,6.36
2022-11-09T03:36:58.672Z,6.45
2022-11-09T03:37:58.750Z,6.39
2022-11-09T03:38:58.680Z,6.48
2022-11-09T03:39:58.642Z,6.57
2022-11-09T03:40:58.711Z,6.43
2022-11-09T03:41:58.620Z,6.60
2022-11-09T03:42:58.620Z,6.63
2022-11-09T03:43:58.601Z,6.61
2022-11-09T03:44:58.586Z,6.55
2022-11-09T03:45:58.728Z,6.63
2022-11-09T03:46:58.658Z,6.63
2022-11-09T03:47:58.649Z,6.68
2022-11-09T03:48:58.541Z,6.71
2022-11-09T03:49:58.545Z,6.68
2022-11-09T03:50:58.518Z,6.76
2022-11-09T03:51:58.510Z,6.58
2022-11-09T03:52:58.508Z,6.61
2022-11-09T03:53:58.593Z,6.65
2022-11-09T03:54:58.476Z,6.71
2022-11-09T03:55:58.467Z,6.69
2022-11-09T03:56:58.467Z,6.75
2022-11-09T03:57:58.444Z,6.69
2022-11-09T03:58:58.445Z,6.75
2022-11-09T03:59:58.500Z,6.71
2022-11-09T04:00:58.415Z,6.71
2022-11-09T04:01:58.441Z,6.72
2022-11-09T04:02:58.471Z,6.73
2022-11-09T04:03:58.378Z,6.78
2022-11-09T04:04:58.376Z,6.76
2022-11-09T04:05:58.422Z,6.75
2022-11-09T04:06:58.410Z,6.81
2022-11-09T04:07:58.334Z,6.87
2022-11-09T04:08:58.321Z,6.82
2022-11-09T04:09:58.312Z,6.96
2022-11-09T04:10:58.390Z,6.96
2022-11-09T04:11:58.302Z,6.89
2022-11-09T04:12:58.384Z,7.00
2022-11-09T04:13:58.350Z,6.93
2022-11-09T04:14:58.255Z,6.93
2022-11-09T04:15:58.249Z,7.00
2022-11-09T04:16:58.328Z,7.09
2022-11-09T04:17:58.232Z,7.12
2022-11-09T04:18:58.244Z,7.12
2022-11-09T04:19:58.204Z,7.16
2022-11-09T04:20:58.191Z,7.07
2022-11-09T04:21:58.221Z,7.09
2022-11-09T04:22:58.171Z,7.16
2022-11-09T04:23:58.161Z,6.96
2022-11-09T04:24:58.158Z,6.81
2022-11-09T04:25:58.147Z,6.76
2022-11-09T04:26:58.127Z,6.73
2022-11-09T04:27:58.167Z,6.79
2022-11-09T04:28:58.105Z,6.83
2022-11-09T04:29:58.096Z,6.75
2022-11-09T04:30:58.092Z,6.82
2022-11-09T04:31:58.072Z,6.76
2022-11-09T04:32:58.059Z,6.87
2022-11-09T04:33:58.108Z,6.79
2022-11-09T04:34:58.056Z,6.86
2022-11-09T04:35:58.041Z,6.89
2022-11-09T04:36:58.019Z,6.94
2022-11-09T04:37:58.009Z,6.90
2022-11-09T04:38:57.995Z,6.75
2022-11-09T04:39:58.029Z,6.81
2022-11-09T04:40:57.983Z,6.83
2022-11-09T04:41:57.964Z,6.87
2022-11-09T04:42:57.950Z,6.94
2022-11-09T04:43:58.050Z,6.94
2022-11-09T04:44:57.935Z,7.07
2022-11-09T04:45:57.991Z,7.00
2022-11-09T04:46:57.910Z,7.09
2022-11-09T04:47:57.897Z,7.11
2022-11-09T04:48:57.888Z,7.16
2022-11-09T04:49:57.890Z,7.19
2022-11-09T04:50:57.882Z,7.07
2022-11-09T04:51:57.967Z,7.29
2022-11-09T04:52:57.840Z,7.16
2022-11-09T04:53:57.831Z,7.29
2022-11-09T04:54:57.820Z,7.14
2022-11-09T04:55:57.833Z,7.29
2022-11-09T04:56:57.799Z,7.32
2022-11-09T04:57:57.979Z,7.30
2022-11-09T04:58:57.777Z,7.23
2022-11-09T04:59:57.766Z,7.29
2022-11-09T05:00:57.762Z,7.30
2022-11-09T05:01:57.760Z,7.45
2022-11-09T05:02:57.731Z,7.39
2022-11-09T05:03:57.804Z,7.37
2022-11-09T05:04:57.711Z,7.48
2022-11-09T05:05:57.711Z,7.55
2022-11-09T05:06:57.789Z,7.50
2022-11-09T05:07:57.680Z,7.55
2022-11-09T05:08:57.668Z,7.51
2022-11-09T05:09:57.687Z,7.50
2022-11-09T05:10:57.643Z,7.47
2022-11-09T05:11:57.646Z,7.45
2022-11-09T05:12:57.626Z,7.41
2022-11-09T05:13:57.615Z,7.44
2022-11-09T05:14:57.600Z,7.16
2022-11-09T05:15:57.642Z,7.18
2022-11-09T05:16:57.590Z,7.15
2022-11-09T05:17:57.576Z,7.07
2022-11-09T05:18:57.562Z,7.05
2022-11-09T05:19:57.560Z,7.09
2022-11-09T05:20:57.536Z,7.19
2022-11-09T05:21:57.694Z,7.24
2022-11-09T05:22:57.532Z,7.16
2022-11-09T05:23:57.506Z,7.32
2022-11-09T05:24:57.491Z,7.29
2022-11-09T05:25:57.483Z,7.44
2022-11-09T05:26:57.469Z,7.52
2022-11-09T05:27:57.581Z,7.52
2022-11-09T05:28:57.456Z,7.58
2022-11-09T05:29:57.441Z,7.57
2022-11-09T05:30:57.426Z,7.54
2022-11-09T05:31:57.420Z,7.62
2022-11-09T05:32:57.418Z,7.74
2022-11-09T05:33:57.463Z,7.82
2022-11-09T05:34:57.392Z,7.71
2022-11-09T05:35:57.372Z,7.71
2022-11-09T05:37:03.121Z,7.81
2022-11-09T05:37:58.353Z,7.71
2022-11-09T05:38:57.358Z,7.82
2022-11-09T05:39:57.425Z,7.88
2022-11-09T05:40:57.317Z,7.85
2022-11-09T05:41:57.309Z,7.84
2022-11-09T05:42:57.296Z,7.85
2022-11-09T05:43:57.287Z,7.92
2022-11-09T05:44:57.285Z,7.74
2022-11-09T05:45:58.124Z,7.69
2022-11-09T05:46:57.251Z,7.47
2022-11-09T05:47:57.255Z,7.48
2022-11-09T05:48:57.234Z,7.37
2022-11-09T05:49:57.221Z,7.27
2022-11-09T05:50:57.211Z,7.26
2022-11-09T05:51:57.246Z,7.29
2022-11-09T05:52:57.188Z,7.41
2022-11-09T05:53:57.196Z,7.34
2022-11-09T05:54:57.252Z,7.34
2022-11-09T05:55:57.153Z,7.51
2022-11-09T05:56:57.143Z,7.45
2022-11-09T05:57:57.175Z,7.45
2022-11-09T05:58:57.121Z,7.48
2022-11-09T05:59:57.109Z,7.50
2022-11-09T06:00:57.119Z,7.60
2022-11-09T06:01:57.137Z,7.51
2022-11-09T06:02:57.078Z,7.60
2022-11-09T06:03:57.125Z,7.44
2022-11-09T06:04:57.057Z,7.55
2022-11-09T06:05:57.043Z,7.47
2022-11-09T06:06:57.104Z,7.52
2022-11-09T06:07:57.022Z,7.62
2022-11-09T06:08:57.023Z,7.63
2022-11-09T06:09:57.058Z,7.63
2022-11-09T06:10:57.020Z,7.74
2022-11-09T06:11:56.981Z,7.62
2022-11-09T06:12:56.970Z,7.58
2022-11-09T06:13:56.955Z,7.45
2022-11-09T06:14:56.950Z,7.50
2022-11-09T06:15:57.078Z,7.44
2022-11-09T06:16:56.950Z,7.55
2022-11-09T06:17:56.927Z,7.51
2022-11-09T06:18:56.902Z,7.42
2022-11-09T06:19:56.898Z,7.45
2022-11-09T06:20:56.890Z,7.55
2022-11-09T06:21:56.893Z,7.47
2022-11-09T06:23:02.503Z,7.37
2022-11-09T06:23:57.844Z,7.34
2022-11-09T06:24:56.963Z,7.37
2022-11-09T06:25:56.839Z,7.34
2022-11-09T06:26:56.845Z,7.32
2022-11-09T06:27:56.910Z,7.33
2022-11-09T06:28:56.795Z,7.29
2022-11-09T06:29:56.784Z,7.16
2022-11-09T06:30:56.774Z,7.19
2022-11-09T06:31:56.770Z,7.36
2022-11-09T06:32:56.816Z,7.41
2022-11-09T06:33:56.737Z,7.45
2022-11-09T06:34:56.727Z,7.52
2022-11-09T06:35:56.812Z,7.67
2022-11-09T06:36:56.725Z,7.51
2022-11-09T06:37:56.700Z,7.52
2022-11-09T06:38:56.758Z,7.58
2022-11-09T06:39:56.672Z,7.51
2022-11-09T06:40:56.672Z,7.60
2022-11-09T06:41:56.649Z,7.62
2022-11-09T06:42:56.786Z,7.45
2022-11-09T06:43:56.636Z,7.51
2022-11-09T06:44:56.666Z,7.50
2022-11-09T06:45:56.611Z,7.55
2022-11-09T06:46:56.597Z,7.67
2022-11-09T06:47:56.582Z,7.66
2022-11-09T06:48:56.587Z,7.69
2022-11-09T06:49:56.565Z,7.67
2022-11-09T06:50:56.591Z,7.74
2022-11-09T06:51:56.540Z,7.79
2022-11-09T06:52:56.531Z,7.82
2022-11-09T06:53:56.527Z,7.84
2022-11-09T06:54:56.508Z,7.82
2022-11-09T06:55:56.508Z,7.88
2022-11-09T06:56:56.720Z,7.82
2022-11-09T06:57:56.475Z,7.88
2022-11-09T06:58:56.498Z,7.92
2022-11-09T06:59:56.453Z,8.00
2022-11-09T07:00:56.468Z,7.92
2022-11-09T07:02:01.289Z,7.95
2022-11-09T07:02:57.517Z,8.00
2022-11-09T07:03:56.408Z,7.96
2022-11-09T07:04:56.400Z,8.04
2022-11-09T07:05:56.433Z,7.96
2022-11-09T07:06:56.582Z,8.00
2022-11-09T07:07:56.366Z,8.04
2022-11-09T07:08:56.436Z,8.07
2022-11-09T07:09:56.342Z,7.96
2022-11-09T07:10:56.333Z,8.04
2022-11-09T07:11:56.319Z,7.94
2022-11-09T07:12:56.323Z,8.03
2022-11-09T07:13:57.623Z,8.09
2022-11-09T07:14:56.366Z,8.10
2022-11-09T07:15:56.279Z,8.12
2022-11-09T07:16:56.284Z,8.17
2022-11-09T07:17:56.263Z,8.10
2022-11-09T07:18:56.243Z,8.07
2022-11-09T07:19:56.234Z,8.04
2022-11-09T07:20:56.272Z,8.22
2022-11-09T07:21:56.209Z,8.14
2022-11-09T07:22:56.214Z,8.20
2022-11-09T07:23:56.206Z,8.14
2022-11-09T07:24:56.178Z,8.21
2022-11-09T07:25:56.165Z,8.32
2022-11-09T07:26:56.170Z,8.31
2022-11-09T07:27:56.156Z,8.25
2022-11-09T07:28:56.145Z,8.34
2022-11-09T07:29:56.120Z,8.25
2022-11-09T07:30:56.130Z,8.34
2022-11-09T07:31:56.097Z,8.37
2022-11-09T07:33:11.551Z,8.36
2022-11-09T07:33:57.087Z,8.29
2022-11-09T07:34:56.067Z,8.31
2022-11-09T07:35:56.066Z,8.42
2022-11-09T07:36:56.048Z,8.32
2022-11-09T07:37:56.044Z,8.43
2022-11-09T07:38:56.032Z,8.39
2022-11-09T07:39:56.011Z,8.29
2022-11-09T07:40:55.999Z,8.31
2022-11-09T07:41:55.988Z,8.45
2022-11-09T07:42:55.979Z,8.40
2022-11-09T07:43:56.063Z,8.40
2022-11-09T07:44:55.968Z,8.49
2022-11-09T07:45:55.945Z,8.54
2022-11-09T07:46:55.954Z,8.46
2022-11-09T07:47:55.923Z,8.57
2022-11-09T07:48:55.930Z,8.40
2022-11-09T07:49:55.966Z,8.40
2022-11-09T07:50:55.889Z,8.57
2022-11-09T07:51:55.880Z,8.40
2022-11-09T07:52:55.866Z,8.46
2022-11-09T07:53:55.854Z,8.52
2022-11-09T07:54:55.864Z,8.55
2022-11-09T07:55:55.916Z,8.57
2022-11-09T07:56:55.823Z,8.43
2022-11-09T07:57:55.815Z,8.54
2022-11-09T07:58:55.803Z,8.52
2022-11-09T07:59:55.785Z,8.45
2022-11-09T08:00:55.793Z,8.42
2022-11-09T08:01:55.892Z,8.43
2022-11-09T08:02:55.783Z,8.40
2022-11-09T08:03:55.749Z,8.43
2022-11-09T08:04:55.772Z,8.37
2022-11-09T08:05:55.736Z,8.46
2022-11-09T08:06:55.881Z,8.39
2022-11-09T08:07:55.763Z,8.47
2022-11-09T08:08:55.689Z,8.60
2022-11-09T08:09:55.678Z,8.52
2022-11-09T08:10:55.669Z,8.47
2022-11-09T08:11:55.653Z,8.57
2022-11-09T08:12:55.657Z,8.63
2022-11-09T08:13:55.660Z,8.67
2022-11-09T08:14:55.621Z,8.68
2022-11-09T08:15:55.616Z,8.75
2022-11-09T08:16:55.612Z,8.64
2022-11-09T08:17:55.586Z,8.75
2022-11-09T08:18:55.607Z,8.83
2022-11-09T08:19:55.590Z,8.83
2022-11-09T08:20:55.624Z,8.89
2022-11-09T08:21:55.547Z,8.88
2022-11-09T08:22:58.432Z,8.86
2022-11-09T08:23:56.536Z,8.79
2022-11-09T08:24:55.514Z,8.79
2022-11-09T08:25:55.591Z,8.85
2022-11-09T08:26:55.489Z,8.89
2022-11-09T08:27:55.478Z,8.80
2022-11-09T08:28:55.469Z,8.89
2022-11-09T08:29:55.465Z,9.01
2022-11-09T08:30:55.449Z,9.04
2022-11-09T08:31:55.498Z,9.10
2022-11-09T08:32:55.426Z,9.10
2022-11-09T08:33:55.409Z,9.08
2022-11-09T08:34:55.427Z,9.04
2022-11-09T08:35:55.438Z,9.01
2022-11-09T08:36:55.399Z,9.00
2022-11-09T08:37:55.431Z,8.91
2022-11-09T08:38:55.361Z,8.91
2022-11-09T08:39:55.344Z,8.80
2022-11-09T08:40:55.348Z,8.83
2022-11-09T08:41:55.323Z,8.76
2022-11-09T08:42:55.317Z,8.82
2022-11-09T08:43:55.351Z,8.86
2022-11-09T08:44:55.293Z,8.78
2022-11-09T08:45:55.279Z,8.75
2022-11-09T08:46:55.281Z,8.91
2022-11-09T08:47:55.259Z,8.98
2022-11-09T08:48:55.250Z,8.89
2022-11-09T08:49:55.316Z,8.85
2022-11-09T08:50:55.248Z,8.86
2022-11-09T08:51:55.296Z,8.89
2022-11-09T08:52:55.204Z,8.89
2022-11-09T08:53:55.198Z,8.98
2022-11-09T08:54:55.183Z,8.97
2022-11-09T08:55:55.184Z,9.01
2022-11-09T08:56:55.243Z,9.03
2022-11-09T08:57:55.161Z,9.03
2022-11-09T08:58:55.142Z,9.16
2022-11-09T08:59:55.127Z,9.17
2022-11-09T09:00:55.137Z,9.12
2022-11-09T09:01:55.157Z,9.22
2022-11-09T09:02:55.191Z,9.12
2022-11-09T09:03:55.085Z,9.01
2022-11-09T09:04:55.074Z,9.04
2022-11-09T09:05:55.061Z,8.94
2022-11-09T09:06:55.122Z,8.96
2022-11-09T09:07:55.048Z,8.96
2022-11-09T09:08:55.135Z,9.00
2022-11-09T09:09:55.017Z,8.88
2022-11-09T09:10:55.025Z,8.89
2022-11-09T09:11:54.994Z,8.86
2022-11-09T09:12:54.997Z,8.98
2022-11-09T09:13:54.976Z,9.03
2022-11-09T09:14:54.966Z,9.10
2022-11-09T09:15:55.020Z,9.00
2022-11-09T09:16:54.944Z,9.13
2022-11-09T09:17:54.932Z,9.12
2022-11-09T09:18:54.935Z,9.20
2022-11-09T09:19:54.916Z,9.13
2022-11-09T09:20:54.901Z,9.23
2022-11-09T09:21:55.022Z,9.20
2022-11-09T09:22:54.911Z,9.24
2022-11-09T09:23:54.868Z,9.31
2022-11-09T09:24:54.863Z,9.32
2022-11-09T09:25:58.513Z,9.42
2022-11-09T09:26:54.839Z,9.38
2022-11-09T09:27:54.837Z,9.53
2022-11-09T09:28:54.951Z,9.49
2022-11-09T09:29:54.812Z,9.58
2022-11-09T09:30:54.794Z,9.58
2022-11-09T09:31:54.778Z,9.58
2022-11-09T09:32:54.771Z,9.58
2022-11-09T09:33:54.762Z,9.53
2022-11-09T09:34:54.891Z,9.58
2022-11-09T09:35:54.737Z,9.65
2022-11-09T09:36:54.731Z,9.58
2022-11-09T09:37:54.716Z,9.67
2022-11-09T09:38:54.728Z,9.75
2022-11-09T09:39:54.694Z,9.86
2022-11-09T09:40:54.790Z,9.74
2022-11-09T09:41:54.677Z,9.83
2022-11-09T09:42:54.666Z,9.92
2022-11-09T09:43:54.659Z,9.99
2022-11-09T09:44:54.641Z,9.93
2022-11-09T09:45:54.633Z,10.04
2022-11-09T09:46:54.744Z,9.93
2022-11-09T09:47:54.615Z,9.99
2022-11-09T09:48:54.597Z,10.04
2022-11-09T09:49:54.691Z,10.09
2022-11-09T09:50:54.701Z,10.07
2022-11-09T09:51:54.566Z,10.24
2022-11-09T09:53:22.301Z,10.35
2022-11-09T09:53:55.651Z,10.54
2022-11-09T09:54:54.554Z,10.43
2022-11-09T09:55:54.545Z,10.49
2022-11-09T09:56:54.510Z,10.49
2022-11-09T09:57:54.519Z,10.51
2022-11-09T09:58:54.496Z,10.44
2022-11-09T09:59:54.568Z,10.52
2022-11-09T10:00:54.470Z,10.87
2022-11-09T10:01:54.458Z,11.35
2022-11-09T10:02:54.456Z,11.26
2022-11-09T10:03:54.453Z,10.99
2022-11-09T10:04:54.499Z,10.99
2022-11-09T10:05:54.510Z,11.02
2022-11-09T10:06:54.435Z,10.81
2022-11-09T10:07:54.402Z,10.62
2022-11-09T10:08:54.384Z,10.43
2022-11-09T10:09:54.372Z,10.47
2022-11-09T10:10:54.408Z,10.35
2022-11-09T10:11:57.330Z,10.32
2022-11-09T10:12:55.351Z,10.49
2022-11-09T10:13:54.327Z,10.51
2022-11-09T10:14:54.323Z,10.57
2022-11-09T10:15:54.307Z,10.55
2022-11-09T10:16:54.400Z,10.58
2022-11-09T10:17:54.364Z,10.47
2022-11-09T10:18:54.275Z,10.31
2022-11-09T10:19:54.261Z,10.43
2022-11-09T10:20:54.254Z,10.35
2022-11-09T10:21:54.249Z,10.44
2022-11-09T10:22:54.244Z,10.38
2022-11-09T10:23:54.220Z,10.44
2022-11-09T10:25:18.661Z,10.52
2022-11-09T10:26:04.283Z,10.43
2022-11-09T10:26:55.212Z,10.36
2022-11-09T10:27:54.175Z,10.42
2022-11-09T10:29:14.904Z,10.32
2022-11-09T10:29:55.168Z,10.17
2022-11-09T10:30:54.199Z,10.25
2022-11-09T10:31:54.132Z,10.25
2022-11-09T10:32:54.121Z,10.24
2022-11-09T10:33:54.112Z,10.47
2022-11-09T10:34:54.111Z,10.36
2022-11-09T10:35:54.099Z,10.49
2022-11-09T10:36:54.126Z,10.51
2022-11-09T10:37:54.064Z,10.57
2022-11-09T10:38:54.056Z,10.51
2022-11-09T10:39:54.058Z,10.65
2022-11-09T10:40:54.046Z,10.65
2022-11-09T10:41:54.019Z,10.70
2022-11-09T10:42:54.045Z,10.88
2022-11-09T10:43:53.999Z,10.86
2022-11-09T10:44:53.992Z,10.88
2022-11-09T10:45:53.990Z,10.70
2022-11-09T10:46:53.972Z,10.69
2022-11-09T10:47:53.955Z,10.75
2022-11-09T10:48:53.997Z,10.76
2022-11-09T10:49:53.936Z,10.72
2022-11-09T10:50:53.965Z,10.76
2022-11-09T10:51:53.924Z,10.98
2022-11-09T10:52:53.984Z,11.08
2022-11-09T10:53:53.893Z,10.95
2022-11-09T10:54:53.884Z,10.95
2022-11-09T10:55:53.926Z,10.84
2022-11-09T10:57:05.453Z,11.35
2022-11-09T10:57:54.849Z,11.35
2022-11-09T10:58:53.861Z,11.44
2022-11-09T10:59:53.827Z,11.30
2022-11-09T11:00:53.823Z,11.21
2022-11-09T11:01:58.168Z,11.11
